CFB Trenton
CYTR : now visible

Airfield :











YOU CAN JOIN US ON...

 
LOGIN :

Register | Disclaimer

   EN    FR    IT 

 









Legend :    VFR   Marginal VFR   IFR   Intensive IFR   Very Intensive IFR
Visi :
Ceiling :
>= 8 km
>= 3000ft
5 to 8 km
1000 to 3000 ft
1500m to 5 km
500 to 1000 ft
800 to 1500m
200 to 500 ft
< 800m
< 200 ft
Symbols :   Thunderstorms  Fog  Heavy snow  Heavy precipitations  Wind > 20 kt






- Airport Elevation : 283 ft
- IATA code : YTR


CYTR - CFB Trenton

CURRENT METAR :
  • 241700Z 16003KT 310V210 15SM FEW048 BKN180 19/06 A3029 RMK CU1AC4 DENSITY ALT 526FT SLP258

EXPIRED METARs :
  • 241600Z 10008KT 060V120 15SM FEW049 BKN190 18/05 A3030 RMK CU1AC6 DENSITY ALT 336FT SLP263
  • 241500Z 09005KT 060V150 15SM FEW044 FEW120 SCT180 17/06 A3031 RMK CU1AC1AC3 DENSITY ALT 267FT SLP267

TAF TAF CYTR
Valid from the 24 at 18:00 until the 25 at 18:00 UTC


241740Z 2418/2518 VRB03KT P6SM FEW050 BKN160
BECMG 2418/2420 21008KT
FM250000 04005KT P6SM FEW050 FEW140
BECMG 2512/2514 10008KT RMK NXT FCST BY 250000Z
CZYZ FIR / North America



MET'MAP, your aeronautical weather chart ! - Copyright ORBIFLY December 2007 - Disclaimer

ORBIFLY MET'MAP TEAM :

Programming & Development : Alexandra Zaïnal
Original concept : Baudouin d'Aumeries
Technical & hardware support : Manuel Goepfert
Assistance : Marc-Olivier Méhu

Contact : metmap@orbifly.com




SOURCES & CREDITS :

   NOAA       Earth
Advisory